createdAt,value
2022-11-17T00:00:34.854Z,2.50
2022-11-17T00:03:03.332Z,2.40
2022-11-17T00:05:31.589Z,2.70
2022-11-17T00:07:59.787Z,2.90
2022-11-17T00:10:29.323Z,2.80
2022-11-17T00:13:26.344Z,2.60
2022-11-17T00:15:54.492Z,2.70
2022-11-17T00:18:40.461Z,2.80
2022-11-17T00:21:23.907Z,2.70
2022-11-17T00:23:52.060Z,2.60
2022-11-17T00:26:22.307Z,2.80
2022-11-17T00:28:53.052Z,2.90
2022-11-17T00:31:38.349Z,3.30
2022-11-17T00:34:06.931Z,3.30
2022-11-17T00:36:39.370Z,3.30
2022-11-17T00:39:07.748Z,3.40
2022-11-17T00:41:37.477Z,3.20
2022-11-17T00:44:06.026Z,3.30
2022-11-17T00:46:34.332Z,3.30
2022-11-17T00:49:02.323Z,3.20
2022-11-17T00:51:30.364Z,2.90
2022-11-17T00:53:58.371Z,2.90
2022-11-17T00:56:26.750Z,3.20
2022-11-17T00:58:56.256Z,3.10
2022-11-17T01:01:25.085Z,3.30
2022-11-17T01:04:03.201Z,3.10
2022-11-17T01:06:33.075Z,3.40
2022-11-17T01:09:01.653Z,3.40
2022-11-17T01:11:30.344Z,3.50
2022-11-17T01:14:00.870Z,3.50
2022-11-17T01:16:29.582Z,3.60
2022-11-17T01:18:59.256Z,3.40
2022-11-17T01:21:28.082Z,3.30
2022-11-17T01:23:57.025Z,3.50
2022-11-17T01:26:26.085Z,3.30
2022-11-17T01:28:54.433Z,3.60
2022-11-17T01:31:24.911Z,3.60
2022-11-17T01:33:53.373Z,3.70
2022-11-17T01:36:22.554Z,3.60
2022-11-17T01:38:50.893Z,3.40
2022-11-17T01:41:20.037Z,3.70
2022-11-17T01:43:49.406Z,3.50
2022-11-17T01:46:29.788Z,3.80
2022-11-17T01:49:00.300Z,3.70
2022-11-17T01:51:28.268Z,4.00
2022-11-17T01:53:56.158Z,4.00
2022-11-17T01:56:25.820Z,3.90
2022-11-17T01:58:55.800Z,3.90
2022-11-17T02:01:23.878Z,4.00
2022-11-17T02:03:53.497Z,3.80
2022-11-17T02:06:23.459Z,3.70
2022-11-17T02:08:51.557Z,3.60
2022-11-17T02:11:20.371Z,3.60
2022-11-17T02:13:48.522Z,3.60
2022-11-17T02:16:17.351Z,3.70
2022-11-17T02:18:45.582Z,3.70
2022-11-17T02:21:43.014Z,3.90
2022-11-17T02:24:52.354Z,4.10
2022-11-17T02:27:41.442Z,4.00
2022-11-17T02:30:10.741Z,4.00
2022-11-17T02:32:43.348Z,3.90
2022-11-17T02:35:15.077Z,3.80
2022-11-17T02:37:47.397Z,3.80
2022-11-17T02:40:16.444Z,4.00
2022-11-17T02:43:03.841Z,4.00
2022-11-17T02:45:34.153Z,4.10
2022-11-17T02:48:02.032Z,4.10
2022-11-17T02:50:29.915Z,4.20
2022-11-17T02:52:57.844Z,4.20
2022-11-17T02:55:25.709Z,4.30
2022-11-17T02:57:54.928Z,4.30
2022-11-17T03:00:22.855Z,4.20
2022-11-17T03:03:01.356Z,4.10
2022-11-17T03:05:32.613Z,4.10
2022-11-17T03:08:08.103Z,4.00
2022-11-17T03:10:41.594Z,4.10
2022-11-17T03:13:13.445Z,4.00
2022-11-17T03:15:45.093Z,4.00
2022-11-17T03:18:16.923Z,4.00
2022-11-17T03:20:49.192Z,4.10
2022-11-17T03:23:19.290Z,4.00
2022-11-17T03:25:48.672Z,4.20
2022-11-17T03:28:17.941Z,4.10
2022-11-17T03:30:46.520Z,4.10
2022-11-17T03:33:16.414Z,4.00
2022-11-17T03:35:50.595Z,4.20
2022-11-17T03:38:19.735Z,4.40
2022-11-17T03:40:48.034Z,4.40
2022-11-17T03:43:17.698Z,4.40
2022-11-17T03:45:47.414Z,4.40
2022-11-17T03:48:23.909Z,4.30
2022-11-17T03:50:54.017Z,4.20
2022-11-17T03:53:21.928Z,4.40
2022-11-17T03:55:53.481Z,4.40
2022-11-17T03:58:23.396Z,4.30
2022-11-17T04:00:52.769Z,4.30
2022-11-17T04:03:22.590Z,4.30
2022-11-17T04:05:50.455Z,4.10
2022-11-17T04:08:19.718Z,4.00
2022-11-17T04:11:13.479Z,4.10
2022-11-17T04:14:00.320Z,4.20
2022-11-17T04:16:28.180Z,4.40
2022-11-17T04:18:58.937Z,4.70
2022-11-17T04:21:27.150Z,4.50
2022-11-17T04:23:56.071Z,4.50
2022-11-17T04:26:41.299Z,4.50
2022-11-17T04:29:10.547Z,4.40
2022-11-17T04:31:38.424Z,4.40
2022-11-17T04:34:06.793Z,4.30
2022-11-17T04:36:36.791Z,4.30
2022-11-17T04:39:04.853Z,4.30
2022-11-17T04:41:50.257Z,4.20
2022-11-17T04:44:19.505Z,4.20
2022-11-17T04:46:47.405Z,4.00
2022-11-17T04:49:15.481Z,4.20
2022-11-17T04:51:43.446Z,4.00
2022-11-17T04:54:12.328Z,4.00
2022-11-17T04:56:40.262Z,4.00
2022-11-17T04:59:08.257Z,4.00
2022-11-17T05:01:37.488Z,4.10
2022-11-17T05:04:06.092Z,4.10
2022-11-17T05:06:35.090Z,4.10
2022-11-17T05:09:04.508Z,4.30
2022-11-17T05:11:50.185Z,4.20
2022-11-17T05:14:19.038Z,4.20
2022-11-17T05:17:09.854Z,4.30
2022-11-17T05:19:39.702Z,4.30
2022-11-17T05:22:28.438Z,4.30
2022-11-17T05:24:55.425Z,4.10
2022-11-17T05:27:23.465Z,4.10
2022-11-17T05:29:51.302Z,4.10
2022-11-17T05:32:20.538Z,4.20
2022-11-17T05:34:48.422Z,4.30
2022-11-17T05:37:16.252Z,4.30
2022-11-17T05:39:44.129Z,4.30
2022-11-17T05:42:12.024Z,4.30
2022-11-17T05:44:40.010Z,4.60
2022-11-17T05:47:07.890Z,4.60
2022-11-17T05:49:37.140Z,4.60
2022-11-17T05:52:05.193Z,4.50
2022-11-17T05:54:33.088Z,4.40
2022-11-17T05:57:01.627Z,4.50
2022-11-17T05:59:31.279Z,4.60
2022-11-17T06:02:00.943Z,4.70
2022-11-17T06:04:28.929Z,4.60
2022-11-17T06:06:59.546Z,4.60
2022-11-17T06:09:28.104Z,4.30
2022-11-17T06:11:58.638Z,4.20
2022-11-17T06:14:30.423Z,4.30
2022-11-17T06:16:59.630Z,4.40
2022-11-17T06:19:28.819Z,4.40
2022-11-17T06:22:11.608Z,4.40
2022-11-17T06:24:40.783Z,4.30
2022-11-17T06:27:08.768Z,4.50
2022-11-17T06:29:42.412Z,4.60
2022-11-17T06:32:12.037Z,4.80
2022-11-17T06:34:39.878Z,5.00
2022-11-17T06:37:09.141Z,5.10
2022-11-17T06:39:37.014Z,5.00
2022-11-17T06:42:04.991Z,4.80
2022-11-17T06:44:32.866Z,4.80
2022-11-17T06:47:00.735Z,4.70
2022-11-17T06:49:28.889Z,4.80
2022-11-17T06:51:56.788Z,5.00
2022-11-17T06:54:26.098Z,5.00
2022-11-17T06:56:55.327Z,4.90
2022-11-17T06:59:23.211Z,4.90
2022-11-17T07:01:51.082Z,4.80
2022-11-17T07:04:18.946Z,5.00
2022-11-17T07:06:46.813Z,5.00
2022-11-17T07:09:14.684Z,5.10
2022-11-17T07:11:43.937Z,5.20
2022-11-17T07:14:11.812Z,5.20
2022-11-17T07:16:39.692Z,5.10
2022-11-17T07:19:08.319Z,5.30
2022-11-17T07:21:36.345Z,5.40
2022-11-17T07:24:04.303Z,5.10
2022-11-17T07:26:32.214Z,5.10
2022-11-17T07:29:01.473Z,5.30
2022-11-17T07:31:29.344Z,5.30
2022-11-17T07:33:57.248Z,5.30
2022-11-17T07:36:25.162Z,5.50
2022-11-17T07:38:53.052Z,5.50
2022-11-17T07:41:21.556Z,5.60
2022-11-17T07:43:49.428Z,5.60
2022-11-17T07:46:18.720Z,5.70
2022-11-17T07:48:46.581Z,5.70
2022-11-17T07:51:14.480Z,5.70
2022-11-17T07:53:42.342Z,5.80
2022-11-17T07:56:11.014Z,5.80
2022-11-17T07:58:39.445Z,5.90
2022-11-17T08:01:08.210Z,6.00
2022-11-17T08:03:37.628Z,5.90
2022-11-17T08:06:05.938Z,6.00
2022-11-17T08:08:34.170Z,6.00
2022-11-17T08:11:03.627Z,6.10
2022-11-17T08:13:31.581Z,6.00
2022-11-17T08:16:00.006Z,6.10
2022-11-17T08:18:28.013Z,6.20
2022-11-17T08:21:03.801Z,6.20
2022-11-17T08:23:31.671Z,6.30
2022-11-17T08:25:59.503Z,6.40
2022-11-17T08:28:27.373Z,6.50
2022-11-17T08:30:55.750Z,6.70
2022-11-17T08:33:23.703Z,7.20
2022-11-17T08:35:51.564Z,7.20
2022-11-17T08:38:20.789Z,7.50
2022-11-17T08:40:48.629Z,7.60
2022-11-17T08:43:16.484Z,7.30
2022-11-17T08:45:44.332Z,7.20
2022-11-17T08:48:12.241Z,7.30
2022-11-17T08:50:40.437Z,7.30
2022-11-17T08:53:11.499Z,7.30
2022-11-17T08:55:41.395Z,7.70
2022-11-17T08:58:09.449Z,7.60
2022-11-17T09:00:37.375Z,7.60
2022-11-17T09:03:06.662Z,7.80
2022-11-17T09:05:35.326Z,7.80
2022-11-17T09:08:29.757Z,7.90
2022-11-17T09:10:52.376Z,7.90
2022-11-17T09:13:20.341Z,8.40
2022-11-17T09:15:49.143Z,8.50
2022-11-17T09:18:17.134Z,8.30
2022-11-17T09:20:46.044Z,8.40
2022-11-17T09:23:13.991Z,8.60
2022-11-17T09:25:41.844Z,8.50
2022-11-17T09:28:11.038Z,8.90
2022-11-17T09:30:38.882Z,9.00
2022-11-17T09:33:06.746Z,8.90
2022-11-17T09:35:34.628Z,9.30
2022-11-17T09:38:02.765Z,10.00
2022-11-17T09:40:36.332Z,9.90
2022-11-17T09:43:07.519Z,9.90
2022-11-17T09:45:38.310Z,10.60
2022-11-17T09:48:38.940Z,10.20
2022-11-17T09:50:57.880Z,10.80
2022-11-17T09:53:27.243Z,10.40
2022-11-17T09:55:55.914Z,10.10
2022-11-17T09:58:30.835Z,9.90
2022-11-17T10:01:00.089Z,10.00
2022-11-17T10:03:29.356Z,10.40
2022-11-17T10:05:57.241Z,11.20
2022-11-17T10:08:30.745Z,11.50
2022-11-17T10:10:58.641Z,11.70
2022-11-17T10:13:28.064Z,11.60
2022-11-17T10:15:56.808Z,11.60
2022-11-17T10:18:26.028Z,11.60
2022-11-17T10:20:53.870Z,12.20
2022-11-17T10:23:21.782Z,11.90
2022-11-17T10:25:50.144Z,11.60
2022-11-17T10:28:25.851Z,11.40
2022-11-17T10:30:55.363Z,11.30
2022-11-17T10:33:36.072Z,11.30
2022-11-17T10:36:04.685Z,11.20
2022-11-17T10:38:33.654Z,11.20
2022-11-17T10:41:02.974Z,11.10
2022-11-17T10:43:31.609Z,11.10
2022-11-17T10:46:00.805Z,10.90
2022-11-17T10:48:29.922Z,10.80
2022-11-17T10:50:59.958Z,10.80
2022-11-17T10:53:36.873Z,10.80
2022-11-17T10:56:12.368Z,10.80
2022-11-17T10:59:00.810Z,10.80
2022-11-17T11:01:32.624Z,10.90
2022-11-17T11:04:00.614Z,10.80
2022-11-17T11:06:30.494Z,10.80
2022-11-17T11:08:59.766Z,10.80
2022-11-17T11:11:43.578Z,10.90
2022-11-17T11:14:18.512Z,10.90
2022-11-17T11:16:48.408Z,10.90
2022-11-17T11:19:17.580Z,10.90
2022-11-17T11:22:06.184Z,10.90
2022-11-17T11:24:39.660Z,10.90
2022-11-17T11:27:17.025Z,10.90
2022-11-17T11:29:50.912Z,10.90
2022-11-17T11:32:24.168Z,11.00
2022-11-17T11:35:24.764Z,11.10
2022-11-17T11:37:56.895Z,11.00
2022-11-17T11:40:27.632Z,11.10
2022-11-17T11:42:57.861Z,11.20
2022-11-17T11:45:35.780Z,11.10
2022-11-17T11:48:12.212Z,11.20
2022-11-17T11:50:44.585Z,11.20
2022-11-17T11:53:17.836Z,11.20
2022-11-17T11:55:46.465Z,11.20
2022-11-17T11:58:15.783Z,11.30
2022-11-17T12:00:43.664Z,11.30
2022-11-17T12:03:17.989Z,11.40
2022-11-17T12:05:52.863Z,11.70
2022-11-17T12:08:26.152Z,12.10
2022-11-17T12:10:55.450Z,12.10
2022-11-17T12:13:23.320Z,12.00
2022-11-17T12:15:51.276Z,12.00
2022-11-17T12:18:31.293Z,12.00
2022-11-17T12:21:02.565Z,12.10
2022-11-17T12:24:01.469Z,12.00
2022-11-17T12:26:29.930Z,12.00
2022-11-17T12:29:27.323Z,12.10
2022-11-17T12:31:55.500Z,12.10
2022-11-17T12:34:25.766Z,12.10
2022-11-17T12:37:26.205Z,12.10
2022-11-17T12:40:02.720Z,12.00
2022-11-17T12:42:30.796Z,12.00
2022-11-17T12:45:03.117Z,12.00
2022-11-17T12:47:32.186Z,12.00
2022-11-17T12:50:34.116Z,12.00
2022-11-17T12:53:34.501Z,12.00
2022-11-17T12:56:26.652Z,12.00
2022-11-17T12:59:13.856Z,11.90
2022-11-17T13:01:43.287Z,11.80
2022-11-17T13:04:13.101Z,11.80
2022-11-17T13:06:55.934Z,11.80
2022-11-17T13:09:24.976Z,11.70
2022-11-17T13:12:01.598Z,11.70
2022-11-17T13:14:29.475Z,11.70
2022-11-17T13:16:57.392Z,11.70
2022-11-17T13:19:33.250Z,11.60
2022-11-17T13:22:02.053Z,11.60
2022-11-17T13:24:32.040Z,11.60
2022-11-17T13:27:01.718Z,11.60
2022-11-17T13:29:29.619Z,11.60
2022-11-17T13:32:15.393Z,11.70
2022-11-17T13:34:47.877Z,11.60
2022-11-17T13:37:17.293Z,11.60
2022-11-17T13:39:55.574Z,11.50
2022-11-17T13:42:25.726Z,11.50
2022-11-17T13:44:54.150Z,11.40
2022-11-17T13:47:22.167Z,11.40
2022-11-17T13:49:50.288Z,11.40
2022-11-17T13:52:37.031Z,11.40
2022-11-17T13:55:20.427Z,11.40
2022-11-17T13:57:56.000Z,11.40
2022-11-17T14:00:24.843Z,11.40
2022-11-17T14:02:53.704Z,11.40
2022-11-17T14:05:24.107Z,11.40
2022-11-17T14:07:52.922Z,11.40
2022-11-17T14:10:33.006Z,11.40
2022-11-17T14:13:33.471Z,11.40
2022-11-17T14:16:01.698Z,11.40
2022-11-17T14:18:32.033Z,11.30
2022-11-17T14:21:10.720Z,11.20
2022-11-17T14:23:38.627Z,11.30
2022-11-17T14:26:06.795Z,11.20
2022-11-17T14:28:36.025Z,11.20
2022-11-17T14:31:03.876Z,11.10
2022-11-17T14:33:31.732Z,11.10
2022-11-17T14:35:59.977Z,11.00
2022-11-17T14:38:27.837Z,10.90
2022-11-17T14:40:56.076Z,10.90
2022-11-17T14:43:23.930Z,10.80
2022-11-17T14:45:53.124Z,10.80
2022-11-17T14:48:22.219Z,10.80
2022-11-17T14:50:50.047Z,10.80
2022-11-17T14:53:17.901Z,10.80
2022-11-17T14:55:45.788Z,10.80
2022-11-17T14:58:13.665Z,10.80
2022-11-17T15:00:41.544Z,10.80
2022-11-17T15:03:10.814Z,10.60
2022-11-17T15:05:45.424Z,10.70
2022-11-17T15:08:13.508Z,10.70
2022-11-17T15:10:45.357Z,10.60
2022-11-17T15:13:13.246Z,10.50
2022-11-17T15:15:41.552Z,10.40
2022-11-17T15:18:11.909Z,10.20
2022-11-17T15:20:39.795Z,10.30
2022-11-17T15:23:08.208Z,10.30
2022-11-17T15:25:38.670Z,10.30
2022-11-17T15:28:06.761Z,10.10
2022-11-17T15:30:34.632Z,10.10
2022-11-17T15:33:02.865Z,10.00
2022-11-17T15:35:32.288Z,10.00
2022-11-17T15:38:00.128Z,9.90
2022-11-17T15:40:27.955Z,9.80
2022-11-17T15:42:55.798Z,9.60
2022-11-17T15:45:23.664Z,9.60
2022-11-17T15:47:51.508Z,9.70
2022-11-17T15:50:19.582Z,9.60
2022-11-17T15:53:03.539Z,9.50
2022-11-17T15:55:33.869Z,9.40
2022-11-17T15:58:01.721Z,9.20
2022-11-17T16:00:29.657Z,9.20
2022-11-17T16:02:58.842Z,9.20
2022-11-17T16:05:26.861Z,9.10
2022-11-17T16:07:56.059Z,9.10
2022-11-17T16:10:23.927Z,9.00
2022-11-17T16:12:51.771Z,9.00
2022-11-17T16:15:19.622Z,9.00
2022-11-17T16:17:47.481Z,8.90
2022-11-17T16:20:15.877Z,8.80
2022-11-17T16:22:43.988Z,8.70
2022-11-17T16:25:13.193Z,8.70
2022-11-17T16:27:41.046Z,8.70
2022-11-17T16:30:09.745Z,8.70
2022-11-17T16:32:37.596Z,8.60
2022-11-17T16:35:06.110Z,8.60
2022-11-17T16:37:34.197Z,8.70
2022-11-17T16:40:02.698Z,8.70
2022-11-17T16:42:32.561Z,8.90
2022-11-17T16:45:00.805Z,8.80
2022-11-17T16:48:27.002Z,8.70
2022-11-17T16:50:54.873Z,8.60
2022-11-17T16:53:23.272Z,8.60
2022-11-17T16:55:51.220Z,8.60
2022-11-17T16:58:21.505Z,8.40
2022-11-17T17:00:49.355Z,8.30
2022-11-17T17:03:18.088Z,8.20
2022-11-17T17:05:45.972Z,8.20
2022-11-17T17:08:13.806Z,8.20
2022-11-17T17:10:41.733Z,8.30
2022-11-17T17:13:10.069Z,8.20
2022-11-17T17:15:39.288Z,8.20
2022-11-17T17:18:07.136Z,8.20
2022-11-17T17:20:35.018Z,8.20
2022-11-17T17:23:03.331Z,8.10
2022-11-17T17:25:31.304Z,8.00
2022-11-17T17:27:59.142Z,7.90
2022-11-17T17:30:27.013Z,7.90
2022-11-17T17:32:56.194Z,7.80
2022-11-17T17:35:24.136Z,7.80
2022-11-17T17:37:51.981Z,7.90
2022-11-17T17:40:19.866Z,7.80
2022-11-17T17:42:47.711Z,7.70
2022-11-17T17:45:15.709Z,7.80
2022-11-17T17:47:43.542Z,7.90
2022-11-17T17:50:12.772Z,7.90
2022-11-17T17:52:40.613Z,7.90
2022-11-17T17:55:09.061Z,7.80
2022-11-17T17:57:36.918Z,7.70
2022-11-17T18:00:05.437Z,7.60
2022-11-17T18:02:33.700Z,7.90
2022-11-17T18:05:03.662Z,7.70
2022-11-17T18:07:33.143Z,7.70
2022-11-17T18:10:01.040Z,7.40
2022-11-17T18:12:28.886Z,7.50
2022-11-17T18:14:56.727Z,7.40
2022-11-17T18:17:24.570Z,7.40
2022-11-17T18:19:52.427Z,7.30
2022-11-17T18:22:20.275Z,7.10
2022-11-17T18:24:49.463Z,7.10
2022-11-17T18:27:17.327Z,7.30
2022-11-17T18:29:45.150Z,7.10
2022-11-17T18:32:12.994Z,7.20
2022-11-17T18:34:41.873Z,6.90
2022-11-17T18:37:09.782Z,7.10
2022-11-17T18:39:38.197Z,6.90
2022-11-17T18:42:07.486Z,6.90
2022-11-17T18:44:35.354Z,6.90
2022-11-17T18:47:03.450Z,6.80
2022-11-17T18:49:31.543Z,6.70
2022-11-17T18:51:59.406Z,6.80
2022-11-17T18:54:27.293Z,6.70
2022-11-17T18:56:55.154Z,6.70
2022-11-17T18:59:24.382Z,6.50
2022-11-17T19:01:52.400Z,6.50
2022-11-17T19:04:20.418Z,6.50
2022-11-17T19:06:48.328Z,6.70
2022-11-17T19:09:17.744Z,6.70
2022-11-17T19:11:45.966Z,7.00
2022-11-17T19:14:13.909Z,7.20
2022-11-17T19:16:45.124Z,7.20
2022-11-17T19:19:14.665Z,7.00
2022-11-17T19:21:42.980Z,7.00
2022-11-17T19:24:10.854Z,6.90
2022-11-17T19:26:38.804Z,6.70
2022-11-17T19:29:14.292Z,6.60
2022-11-17T19:31:45.927Z,6.50
2022-11-17T19:34:13.973Z,6.50
2022-11-17T19:36:42.144Z,6.40
2022-11-17T19:39:11.959Z,6.60
2022-11-17T19:41:39.980Z,6.50
2022-11-17T19:44:08.787Z,6.50
2022-11-17T19:46:37.070Z,6.30
2022-11-17T19:49:07.486Z,6.40
2022-11-17T19:51:36.376Z,6.30
2022-11-17T19:54:05.122Z,6.30
2022-11-17T19:56:33.088Z,6.50
2022-11-17T19:59:00.969Z,6.40
2022-11-17T20:01:29.648Z,6.40
2022-11-17T20:03:58.064Z,6.40
2022-11-17T20:06:28.297Z,6.30
2022-11-17T20:08:57.259Z,6.30
2022-11-17T20:11:26.120Z,6.30
2022-11-17T20:13:54.485Z,6.30
2022-11-17T20:16:24.443Z,6.30
2022-11-17T20:18:53.001Z,6.10
2022-11-17T20:21:20.950Z,6.20
2022-11-17T20:23:50.253Z,6.30
2022-11-17T20:26:19.381Z,6.40
2022-11-17T20:28:47.798Z,6.00
2022-11-17T20:31:16.530Z,5.80
2022-11-17T20:33:44.954Z,5.90
2022-11-17T20:36:13.881Z,5.90
2022-11-17T20:38:41.811Z,6.10
2022-11-17T20:41:11.097Z,6.20
2022-11-17T20:43:39.051Z,6.10
2022-11-17T20:46:07.163Z,6.10
2022-11-17T20:48:36.021Z,6.00
2022-11-17T20:51:05.161Z,5.80
2022-11-17T20:53:33.175Z,5.80
2022-11-17T20:56:01.446Z,5.90
2022-11-17T20:58:30.842Z,6.00
2022-11-17T21:00:58.747Z,6.00
2022-11-17T21:03:27.482Z,6.30
2022-11-17T21:05:58.879Z,6.30
2022-11-17T21:08:27.924Z,6.30
2022-11-17T21:10:56.642Z,6.10
2022-11-17T21:13:24.595Z,6.00
2022-11-17T21:16:05.062Z,6.20
2022-11-17T21:18:33.030Z,6.30
2022-11-17T21:21:01.584Z,6.10
2022-11-17T21:23:29.556Z,6.20
2022-11-17T21:25:57.424Z,6.20
2022-11-17T21:28:25.319Z,6.20
2022-11-17T21:30:53.212Z,6.30
2022-11-17T21:33:22.675Z,6.40
2022-11-17T21:35:50.584Z,6.70
2022-11-17T21:38:18.451Z,7.10
2022-11-17T21:40:46.274Z,6.70
2022-11-17T21:43:14.141Z,6.90
2022-11-17T21:45:42.031Z,6.90
2022-11-17T21:48:09.986Z,6.60
2022-11-17T21:50:39.193Z,6.70
2022-11-17T21:53:07.096Z,6.60
2022-11-17T21:55:35.004Z,6.50
2022-11-17T21:58:02.953Z,6.60
2022-11-17T22:00:30.884Z,6.50
2022-11-17T22:02:58.796Z,6.50
2022-11-17T22:05:26.694Z,6.60
2022-11-17T22:07:55.935Z,6.70
2022-11-17T22:10:23.829Z,6.50
2022-11-17T22:12:51.761Z,6.50
2022-11-17T22:15:19.713Z,6.50
2022-11-17T22:17:48.594Z,6.50
2022-11-17T22:20:17.256Z,6.60
2022-11-17T22:22:45.392Z,6.50
2022-11-17T22:25:42.889Z,6.40
2022-11-17T22:28:02.591Z,6.50
2022-11-17T22:30:30.469Z,6.50
2022-11-17T22:32:58.416Z,6.50
2022-11-17T22:35:26.370Z,6.60
2022-11-17T22:37:54.235Z,6.60
2022-11-17T22:40:23.536Z,6.60
2022-11-17T22:42:53.504Z,6.60
2022-11-17T22:45:21.490Z,6.70
2022-11-17T22:47:49.404Z,6.40
2022-11-17T22:50:17.768Z,6.40
2022-11-17T22:52:45.756Z,6.60
2022-11-17T22:55:13.673Z,6.60
2022-11-17T22:57:42.936Z,6.80
2022-11-17T23:00:12.179Z,6.80
2022-11-17T23:02:40.089Z,7.00
2022-11-17T23:05:08.342Z,7.10
2022-11-17T23:07:36.216Z,7.20
2022-11-17T23:10:04.318Z,7.30
2022-11-17T23:12:32.261Z,7.30
2022-11-17T23:15:01.467Z,7.40
2022-11-17T23:17:29.354Z,7.20
2022-11-17T23:19:57.240Z,7.20
2022-11-17T23:22:25.158Z,7.00
2022-11-17T23:24:53.126Z,6.90
2022-11-17T23:27:21.132Z,6.90
2022-11-17T23:29:49.036Z,6.90
2022-11-17T23:32:18.399Z,6.90
2022-11-17T23:34:46.364Z,7.00
2022-11-17T23:37:14.442Z,7.00
2022-11-17T23:39:42.514Z,7.00
2022-11-17T23:42:10.513Z,7.10
2022-11-17T23:44:38.456Z,7.10
2022-11-17T23:47:06.412Z,7.20
2022-11-17T23:49:35.695Z,7.20
2022-11-17T23:52:03.606Z,7.10
2022-11-17T23:54:31.532Z,7.20
2022-11-17T23:56:59.512Z,7.20
2022-11-17T23:59:27.381Z,7.20
